Cooperative Spirit — WDB9878 — position and weather

sailwx.info

Track history (hours):
 
Tides and Currents Weather Stations Pressure Air Temp Water Temp Dewpoint Dewpoint Depression Visibility Wind Speed Wind Dir Waves Ship Positions

Cooperative Spirit

Owner: American River Transportation Company, St Louis, MO. More information available from US FCC via Universal Licensing System and Coast Guard Vessel Documentation Center.

Last reported at 2018-May-24 03:39 UTC. Time now 2018-May-27 03:38 UTC.
Position N 31°57' W 091°11'.

Length 61 m; draft 3.4 m.

Type: Towing. MMSI: 366984350.

Date/timePositionNaut miles runAvg speedWind from/ knotsBaromVisibWave heightAir tempDewpointWater temp
2018-May-24 03:39N 31°57' W 091°11'4 9.0
2018-May-24 03:12N 31°59' W 091°07'2 9.8
2018-May-24 03:00N 32°00' W 091°05'5 9.0
2018-May-24 02:25N 32°05' W 091°05'3 6.4
2018-May-24 02:00N 32°08' W 091°05'4 7.9
2018-May-24 01:30N 32°08' W 091°01'4 8.4
2018-May-24 01:00N 32°12' W 090°60'5 9.9
2018-May-24 00:30N 32°16' W 090°57'1 1.9
2018-May-24 00:00N 32°17' W 090°56'0 0.0
2018-May-23 23:30N 32°17' W 090°56'0 0.0
2018-May-23 23:00N 32°17' W 090°56'0 0.0
2018-May-23 22:30N 32°17' W 090°56'0 0.2
2018-May-23 22:00N 32°17' W 090°56'1 2.7
2018-May-23 21:30N 32°18' W 090°55'3 5.1
2018-May-23 21:00N 32°20' W 090°54'3 6.0
2018-May-23 20:30N 32°21' W 090°58'3 6.3
2018-May-23 20:00N 32°24' W 090°60'5 9.1
2018-May-23 19:30N 32°26' W 091°04'5 9.1
2018-May-23 19:00N 32°30' W 091°07'4 9.1
2018-May-23 18:30N 32°35' W 091°07'5 8.6
2018-May-23 17:55N 32°40' W 091°08'  
Track history (hours):
 
Tides and Currents Weather Stations Pressure Air Temp Water Temp Dewpoint Dewpoint Depression Visibility Wind Speed Wind Dir Waves Ship Positions

Cooperative Spirit

Owner: American River Transportation Company, St Louis, MO. More information available from US FCC via Universal Licensing System and Coast Guard Vessel Documentation Center.

Last reported at 2018-May-24 03:39 UTC. Time now 2018-May-27 03:38 UTC.
Position N 31°57' W 091°11'.

Length 61 m; draft 3.4 m.

Type: Towing. MMSI: 366984350.

Date/timePositionNaut miles runAvg speedWind from/ knotsBaromVisibWave heightAir tempDewpointWater temp
2018-May-24 03:39N 31°57' W 091°11'4 9.0
2018-May-24 03:12N 31°59' W 091°07'2 9.8
2018-May-24 03:00N 32°00' W 091°05'5 9.0
2018-May-24 02:25N 32°05' W 091°05'3 6.4
2018-May-24 02:00N 32°08' W 091°05'4 7.9
2018-May-24 01:30N 32°08' W 091°01'4 8.4
2018-May-24 01:00N 32°12' W 090°60'5 9.9
2018-May-24 00:30N 32°16' W 090°57'1 1.9
2018-May-24 00:00N 32°17' W 090°56'0 0.0
2018-May-23 23:30N 32°17' W 090°56'0 0.0
2018-May-23 23:00N 32°17' W 090°56'0 0.0
2018-May-23 22:30N 32°17' W 090°56'0 0.2
2018-May-23 22:00N 32°17' W 090°56'1 2.7
2018-May-23 21:30N 32°18' W 090°55'3 5.1
2018-May-23 21:00N 32°20' W 090°54'3 6.0
2018-May-23 20:30N 32°21' W 090°58'3 6.3
2018-May-23 20:00N 32°24' W 090°60'5 9.1
2018-May-23 19:30N 32°26' W 091°04'5 9.1
2018-May-23 19:00N 32°30' W 091°07'4 9.1
2018-May-23 18:30N 32°35' W 091°07'5 8.6
2018-May-23 17:55N 32°40' W 091°08'  

Dump ship's entire track history